Plentywood (PWD)
Plentywood, MT
Field Elevation: 2251
Lat: 48°47.32N  Long: 104°31.39W
CTAF/Unicom Freq: 122.8000
   
     For Weather-by-Phone, call 406-765-2149
Weather Advisories
7/22/2014 19:21 Z
Altimeter 30.20" Hg
Wind 110° @ 3 KT
Gusts --
Visibility 9 SM
Temperature 24° C (75° F)
Dewpoint 17° C (63° F)
Relative Humidity 66%
Density Altitude 3,400 feet
Condensation Altitude 5,600 feet
  Wind and Runways
Indicated Runway = 12
History
 
 
More Info
All DigiWx sites map
NOAA Forecast
 
Airport IQ 5010
(S59) Libby
(6S5) Ravalli County
 
about DigiWx
 
FAA Disclaimer: The data displayed is for advisory purposes only and is not to be used for flight planning or operations. For official data, please call 406-765-2149 to hear the current automated AWOS voice message.
  METAR PWD 221921Z AUTO 11003KT 9SM 24/17 A3020